Time;durP1;ratioP1;P1;durP2;ratioP2;P2;SDS_P1;SDS_P2;PMS_P1;PMS_P2;Temp;Humidity;BMP_temperature;BMP_pressure;BME280_temperature;BME280_humidity;BME280_pressure;Samples;Min_cycle;Max_cycle;Signal;HPM_P1;HPM_P2
2024/04/07 00:00:22;;;;;;;2.10;1.30;;;;;;;10.23;100.00;100161.23;105964;1264;75279;-55
2024/04/07 00:02:52;;;;;;;3.10;1.80;;;;;;;10.22;100.00;100169.92;105630;1268;65996;-56
2024/04/07 00:05:20;;;;;;;4.90;1.50;;;;;;;10.18;100.00;100168.09;105546;1266;73139;-55
2024/04/07 00:07:46;;;;;;;2.10;1.50;;;;;;;10.14;100.00;100171.48;106022;1263;62124;-56
2024/04/07 00:10:13;;;;;;;1.60;1.50;;;;;;;10.11;100.00;100171.44;105480;1264;62160;-55
2024/04/07 00:12:40;;;;;;;1.50;1.40;;;;;;;10.05;100.00;100176.66;105530;1266;75618;-54
2024/04/07 00:15:07;;;;;;;1.10;1.00;;;;;;;10.00;100.00;100178.48;105647;1261;66451;-55
2024/04/07 00:17:34;;;;;;;1.10;1.00;;;;;;;9.95;100.00;100182.63;105754;1267;72247;-56
2024/04/07 00:20:01;;;;;;;1.50;1.20;;;;;;;9.89;100.00;100184.27;105520;1263;61404;-55
2024/04/07 00:22:28;;;;;;;1.80;1.70;;;;;;;9.86;100.00;100192.45;105546;1270;61033;-55
2024/04/07 00:24:57;;;;;;;1.50;1.10;;;;;;;9.83;100.00;100195.98;105612;1267;76053;-53
2024/04/07 00:27:26;;;;;;;1.60;1.40;;;;;;;9.80;100.00;100191.63;105609;1262;67329;-57
2024/04/07 00:29:52;;;;;;;1.70;1.50;;;;;;;9.75;100.00;100189.31;105549;1262;74314;-54
2024/04/07 00:32:20;;;;;;;1.80;1.60;;;;;;;9.71;100.00;100192.33;105583;1263;61216;-55
2024/04/07 00:34:48;;;;;;;2.00;1.80;;;;;;;9.67;100.00;100205.02;105742;1262;62159;-55
2024/04/07 00:37:15;;;;;;;1.90;1.80;;;;;;;9.62;100.00;100215.96;105563;1261;75136;-55
2024/04/07 00:39:43;;;;;;;1.50;1.40;;;;;;;9.53;100.00;100221.32;106024;1264;66923;-55
2024/04/07 00:42:10;;;;;;;3.20;2.30;;;;;;;9.41;100.00;100220.67;105663;1261;73468;-55
2024/04/07 00:44:37;;;;;;;1.90;1.20;;;;;;;9.29;100.00;100227.71;105333;1269;61479;-56
2024/04/07 00:47:04;;;;;;;1.70;1.40;;;;;;;9.20;100.00;100237.90;105641;1265;62063;-55
2024/04/07 00:49:31;;;;;;;2.30;1.30;;;;;;;9.07;100.00;100234.94;105726;1261;74929;-56
2024/04/07 00:51:58;;;;;;;1.30;1.20;;;;;;;8.95;100.00;100240.38;105398;1267;66168;-55
2024/04/07 00:54:25;;;;;;;2.80;1.80;;;;;;;8.88;100.00;100238.47;105496;1261;73113;-55
2024/04/07 00:56:51;;;;;;;2.70;1.30;;;;;;;8.82;100.00;100238.31;105438;1260;61853;-55
2024/04/07 00:59:18;;;;;;;1.30;1.10;;;;;;;8.77;100.00;100237.58;105453;1267;62022;-57
2024/04/07 01:01:45;;;;;;;3.30;1.50;;;;;;;8.75;100.00;100244.29;105604;1265;74556;-54
2024/04/07 01:04:12;;;;;;;1.90;1.40;;;;;;;8.73;100.00;100246.13;105565;1276;66163;-53
2024/04/07 01:06:39;;;;;;;1.30;1.20;;;;;;;8.71;100.00;100248.14;105668;1264;73405;-54
2024/04/07 01:09:07;;;;;;;1.50;1.40;;;;;;;8.71;100.00;100254.96;105711;1260;61347;-54
2024/04/07 01:11:33;;;;;;;3.60;1.80;;;;;;;8.70;100.00;100253.73;105623;1264;61239;-53
2024/04/07 01:14:01;;;;;;;1.70;1.50;;;;;;;8.70;100.00;100259.65;105899;1260;74875;-55
2024/04/07 01:16:28;;;;;;;1.80;1.50;;;;;;;8.70;100.00;100260.89;105697;1264;66959;-54
2024/04/07 01:18:55;;;;;;;2.70;1.60;;;;;;;8.70;100.00;100263.39;105747;1263;73013;-57
2024/04/07 01:21:23;;;;;;;4.90;1.20;;;;;;;8.68;100.00;100260.98;105756;1260;61324;-56
2024/04/07 01:23:50;;;;;;;1.90;1.30;;;;;;;8.64;100.00;100263.77;105868;1263;61229;-57
2024/04/07 01:26:17;;;;;;;1.30;1.20;;;;;;;8.61;100.00;100272.80;105735;1263;74877;-57
2024/04/07 01:28:43;;;;;;;5.00;1.20;;;;;;;8.57;100.00;100274.20;105637;1261;66024;-57
2024/04/07 01:31:11;;;;;;;2.60;1.20;;;;;;;8.53;100.00;100280.77;105713;1259;71585;-57
2024/04/07 01:33:39;;;;;;;3.40;1.80;;;;;;;8.47;100.00;100285.42;105596;1262;61467;-57
2024/04/07 01:36:05;;;;;;;1.50;1.30;;;;;;;8.41;100.00;100285.27;108548;1260;59315;-56
2024/04/07 01:38:32;;;;;;;2.40;1.40;;;;;;;8.36;100.00;100273.61;108724;1260;72833;-56
2024/04/07 01:40:59;;;;;;;1.70;1.60;;;;;;;8.33;100.00;100280.50;108758;1259;67517;-56
2024/04/07 01:43:26;;;;;;;2.40;1.50;;;;;;;8.31;100.00;100285.56;108656;1260;71085;-56
2024/04/07 01:45:52;;;;;;;2.20;2.00;;;;;;;8.26;100.00;100286.40;108781;1259;60326;-56
2024/04/07 01:48:19;;;;;;;2.10;1.50;;;;;;;8.18;100.00;100281.82;106635;1264;62003;-55
2024/04/07 01:50:47;;;;;;;3.30;1.50;;;;;;;8.11;100.00;100279.70;106178;1264;75736;-56
2024/04/07 01:53:14;;;;;;;1.40;1.20;;;;;;;8.08;100.00;100277.86;105744;1264;66952;-56
2024/04/07 01:55:42;;;;;;;1.50;1.00;;;;;;;8.06;100.00;100276.30;106168;1260;72877;-56
2024/04/07 01:58:08;;;;;;;1.90;1.40;;;;;;;8.05;100.00;100280.27;105593;1259;61429;-56
2024/04/07 02:00:35;;;;;;;1.20;1.10;;;;;;;8.03;100.00;100291.23;105629;1264;60991;-56
2024/04/07 02:03:02;;;;;;;3.80;1.20;;;;;;;7.98;100.00;100292.96;106472;1260;75251;-57
2024/04/07 02:05:29;;;;;;;3.20;1.20;;;;;;;7.95;100.00;100294.83;105771;1260;66449;-56
2024/04/07 02:07:56;;;;;;;2.70;1.50;;;;;;;7.93;100.00;100295.96;105957;1263;72045;-56
2024/04/07 02:10:23;;;;;;;4.90;1.40;;;;;;;7.92;100.00;100306.20;105799;1260;61323;-57
2024/04/07 02:12:49;;;;;;;1.80;1.50;;;;;;;7.87;100.00;100304.91;105635;1264;62058;-57
2024/04/07 02:15:16;;;;;;;1.70;1.50;;;;;;;7.81;100.00;100297.40;105629;1259;73733;-56
2024/04/07 02:17:43;;;;;;;3.20;1.60;;;;;;;7.77;100.00;100298.04;105599;1259;65502;-56
2024/04/07 02:20:09;;;;;;;2.80;1.90;;;;;;;7.72;100.00;100309.08;105643;1264;72891;-57
2024/04/07 02:22:36;;;;;;;4.10;1.50;;;;;;;7.66;100.00;100309.60;105588;1260;61426;-57
2024/04/07 02:25:04;;;;;;;1.60;1.50;;;;;;;7.59;100.00;100318.73;105570;1261;61363;-57
2024/04/07 02:27:31;;;;;;;1.60;1.50;;;;;;;7.52;100.00;100324.80;105796;1264;74457;-56
2024/04/07 02:29:57;;;;;;;1.60;1.10;;;;;;;7.44;100.00;100325.02;105598;1260;67018;-56
2024/04/07 02:32:24;;;;;;;1.90;1.00;;;;;;;7.40;100.00;100321.35;105585;1259;72929;-56
2024/04/07 02:34:51;;;;;;;2.10;1.30;;;;;;;7.42;100.00;100319.89;105641;1264;61331;-56
2024/04/07 02:37:17;;;;;;;2.00;1.00;;;;;;;7.46;100.00;100316.04;105793;1264;61295;-56
2024/04/07 02:39:44;;;;;;;1.10;1.00;;;;;;;7.51;100.00;100311.80;105687;1264;73602;-57
2024/04/07 02:42:11;;;;;;;1.20;0.90;;;;;;;7.56;100.00;100314.85;105637;1260;68017;-57
2024/04/07 02:50:09;;;;;;;1.80;0.90;;;;;;;7.70;100.00;100320.40;105520;1259;61333;-56
2024/04/07 02:52:36;;;;;;;1.00;0.80;;;;;;;7.73;100.00;100326.92;105679;1264;74379;-57
2024/04/07 02:55:03;;;;;;;0.90;0.90;;;;;;;7.73;100.00;100328.73;106116;1261;67066;-56
2024/04/07 02:57:30;;;;;;;2.30;1.00;;;;;;;7.70;100.00;100334.49;105537;1260;73194;-58
2024/04/07 02:59:56;;;;;;;4.30;1.10;;;;;;;7.67;100.00;100334.03;105625;1264;61450;-57
2024/04/07 03:02:23;;;;;;;1.80;1.20;;;;;;;7.61;100.00;100334.56;105679;1260;61356;-56
2024/04/07 03:04:50;;;;;;;2.80;1.20;;;;;;;7.57;100.00;100339.67;105785;1261;74245;-56
2024/04/07 03:07:17;;;;;;;1.30;1.00;;;;;;;7.54;100.00;100334.41;107322;1262;67852;-56
2024/04/07 03:09:43;;;;;;;0.90;0.90;;;;;;;7.52;100.00;100340.88;105622;1264;72616;-57
2024/04/07 03:12:10;;;;;;;1.70;1.20;;;;;;;7.49;100.00;100342.20;105607;1265;61254;-56
2024/04/07 03:14:37;;;;;;;2.40;1.00;;;;;;;7.44;100.00;100345.02;105800;1256;60385;-57
2024/04/07 03:17:03;;;;;;;4.20;1.10;;;;;;;7.40;100.00;100349.77;105725;1257;74809;-54
2024/04/07 03:19:32;;;;;;;1.70;1.20;;;;;;;7.37;100.00;100349.31;105858;1260;66424;-56
2024/04/07 03:22:00;;;;;;;2.00;1.10;;;;;;;7.37;100.00;100355.93;105838;1256;72826;-57
2024/04/07 03:24:28;;;;;;;1.60;1.10;;;;;;;7.35;100.00;100357.23;105849;1257;61367;-56
2024/04/07 03:26:55;;;;;;;4.50;1.40;;;;;;;7.32;100.00;100357.81;105967;1260;61145;-56
2024/04/07 03:29:22;;;;;;;6.00;1.80;;;;;;;7.32;100.00;100358.35;106120;1256;73935;-56
2024/04/07 03:31:49;;;;;;;5.20;1.60;;;;;;;7.32;100.00;100362.11;105882;1257;66654;-57
2024/04/07 03:34:15;;;;;;;6.30;1.60;;;;;;;7.31;100.00;100367.13;105917;1260;72993;-57
2024/04/07 03:36:42;;;;;;;2.70;1.50;;;;;;;7.31;100.00;100371.10;105996;1256;61429;-56
2024/04/07 03:39:09;;;;;;;2.70;1.50;;;;;;;7.29;100.00;100382.00;105890;1256;62191;-56
2024/04/07 03:41:35;;;;;;;3.60;1.10;;;;;;;7.27;100.00;100386.00;105810;1260;73877;-56
2024/04/07 03:44:02;;;;;;;3.30;1.70;;;;;;;7.24;100.00;100392.65;105836;1269;67067;-56
2024/04/07 03:46:29;;;;;;;1.70;1.10;;;;;;;7.22;100.00;100394.34;106210;1257;72676;-57
2024/04/07 03:48:56;;;;;;;1.80;1.30;;;;;;;7.21;100.00;100400.05;105836;1256;62105;-57
2024/04/07 03:51:23;;;;;;;2.80;1.40;;;;;;;7.21;100.00;100407.57;106061;1259;61595;-57
2024/04/07 03:53:50;;;;;;;2.30;2.00;;;;;;;7.18;100.00;100408.86;105877;1261;75026;-56
2024/04/07 03:56:17;;;;;;;1.50;1.20;;;;;;;7.17;100.00;100414.79;106313;1257;67279;-57
2024/04/07 03:58:44;;;;;;;2.00;1.50;;;;;;;7.17;100.00;100416.04;105852;1261;72740;-57
2024/04/07 04:01:10;;;;;;;1.70;1.60;;;;;;;7.17;100.00;100418.54;105830;1260;60953;-56
2024/04/07 04:03:37;;;;;;;1.90;1.50;;;;;;;7.21;100.00;100422.20;105839;1260;61254;-56
2024/04/07 04:06:04;;;;;;;1.90;1.10;;;;;;;7.29;100.00;100422.52;106752;1257;74870;-56
2024/04/07 04:08:31;;;;;;;1.20;1.00;;;;;;;7.40;100.00;100426.19;105868;1261;68701;-56
2024/04/07 04:11:01;;;;;;;2.10;0.90;;;;;;;7.51;100.00;100429.84;105843;1262;73165;-56
2024/04/07 04:13:29;;;;;;;0.90;0.70;;;;;;;7.66;100.00;100430.36;105878;1260;61419;-56
2024/04/07 04:15:56;;;;;;;0.90;0.80;;;;;;;7.84;100.00;100438.09;105864;1257;59952;-57
2024/04/07 04:18:22;;;;;;;2.20;0.90;;;;;;;8.07;100.00;100444.46;105867;1261;73334;-57
2024/04/07 04:20:50;;;;;;;1.20;0.80;;;;;;;8.37;100.00;100449.18;105948;1256;65431;-57
2024/04/07 04:23:16;;;;;;;2.30;1.30;;;;;;;8.77;100.00;100456.09;105789;1261;71164;-56
2024/04/07 04:25:55;;;;;;;1.40;0.90;;;;;;;9.15;100.00;100457.95;105890;1259;61324;-56
2024/04/07 04:28:22;;;;;;;2.70;0.90;;;;;;;9.60;100.00;100454.00;108931;1256;59232;-56
2024/04/07 04:30:56;;;;;;;1.40;1.00;;;;;;;10.04;100.00;100456.92;108850;1256;74873;-56
2024/04/07 04:33:23;;;;;;;2.00;0.90;;;;;;;10.52;100.00;100456.88;109002;1256;66749;-56
2024/04/07 04:35:50;;;;;;;2.00;0.90;;;;;;;10.97;100.00;100463.96;108805;1256;72533;-56
2024/04/07 04:38:16;;;;;;;1.50;1.20;;;;;;;11.36;100.00;100469.59;108839;1255;58897;-56
2024/04/07 04:40:53;;;;;;;4.80;1.10;;;;;;;11.74;100.00;100475.41;108865;1256;59016;-56
2024/04/07 04:43:20;;;;;;;2.80;0.90;;;;;;;12.13;100.00;100481.34;108860;1256;74021;-57
2024/04/07 04:46:12;;;;;;;1.00;0.60;;;;;;;12.50;100.00;100483.66;106187;1259;65955;-57
2024/04/07 04:48:39;;;;;;;1.20;0.80;;;;;;;12.86;100.00;100492.26;107427;1260;73088;-57
2024/04/07 04:51:06;;;;;;;1.60;0.70;;;;;;;12.96;100.00;100499.38;107008;1256;62114;-57
2024/04/07 04:53:32;;;;;;;0.60;0.60;;;;;;;12.85;100.00;100505.11;105943;1260;62176;-56
2024/04/07 04:56:01;;;;;;;0.50;0.50;;;;;;;12.67;100.00;100510.45;106500;1257;74417;-56
2024/04/07 04:58:33;;;;;;;1.10;0.80;;;;;;;12.46;100.00;100518.55;106043;1256;67942;-57
2024/04/07 05:01:10;;;;;;;0.90;0.60;;;;;;;12.26;100.00;100522.69;106238;1263;73719;-56
2024/04/07 05:03:37;;;;;;;3.10;0.60;;;;;;;12.05;100.00;100525.20;105983;1259;61357;-56
2024/04/07 05:06:08;;;;;;;1.00;0.60;;;;;;;11.85;100.00;100526.77;108866;1256;59476;-56
2024/04/07 05:08:35;;;;;;;0.70;0.60;;;;;;;11.68;100.00;100531.40;105808;1261;183197;-56
2024/04/07 05:12:27;;;;;;;0.50;0.50;;;;;;;11.49;100.00;100535.39;102725;1295;601583;-57
2024/04/07 05:14:53;;;;;;;0.70;0.50;;;;;;;11.41;100.00;100542.39;105508;1272;60528;-57
2024/04/07 05:17:20;;;;;;;0.50;0.40;;;;;;;11.34;100.00;100545.32;106042;1263;60528;-57
2024/04/07 05:19:50;;;;;;;1.30;0.50;;;;;;;11.29;100.00;100542.47;105728;1263;73252;-56
2024/04/07 05:22:16;;;;;;;2.20;0.50;;;;;;;11.28;100.00;100551.30;105718;1262;66962;-57
2024/04/07 05:24:43;;;;;;;0.50;0.40;;;;;;;11.28;100.00;100560.11;105733;1259;72938;-57
2024/04/07 05:27:10;;;;;;;0.60;0.40;;;;;;;11.29;100.00;100562.25;106324;1258;187901;-55
2024/04/07 05:29:37;;;;;;;0.40;0.40;;;;;;;11.31;100.00;100566.13;105991;1263;60081;-55
2024/04/07 05:32:04;;;;;;;0.90;0.40;;;;;;;11.32;100.00;100563.18;105917;1260;74015;-57
2024/04/07 05:34:31;;;;;;;2.50;0.40;;;;;;;11.30;100.00;100567.77;106219;1273;67381;-56
2024/04/07 05:37:02;;;;;;;0.70;0.60;;;;;;;11.24;100.00;100565.30;105866;1266;72590;-58
2024/04/07 05:39:29;;;;;;;1.00;0.50;;;;;;;11.18;100.00;100564.80;105884;1258;61800;-58
2024/04/07 05:41:56;;;;;;;0.60;0.50;;;;;;;11.14;100.00;100568.02;105756;1270;60788;-57
2024/04/07 05:44:23;;;;;;;1.00;0.50;;;;;;;11.12;100.00;100571.49;105835;1265;72578;-55
2024/04/07 05:46:51;;;;;;;2.70;0.60;;;;;;;11.16;100.00;100567.42;105798;1257;66012;-54
2024/04/07 05:49:18;;;;;;;0.90;0.70;;;;;;;11.19;100.00;100571.07;106115;1261;73465;-56
2024/04/07 05:51:45;;;;;;;0.80;0.60;;;;;;;11.20;100.00;100571.73;105801;1257;62824;-56
2024/04/07 05:54:12;;;;;;;1.70;0.60;;;;;;;11.20;100.00;100568.69;105858;1263;60430;-54
2024/04/07 05:56:38;;;;;;;1.00;0.60;;;;;;;11.22;100.00;100572.36;105894;1263;75110;-56
2024/04/07 05:59:05;;;;;;;1.20;0.50;;;;;;;11.29;100.00;100578.06;105959;1263;65792;-57
2024/04/07 06:01:32;;;;;;;0.80;0.60;;;;;;;11.35;100.00;100578.90;105880;1263;72502;-56
2024/04/07 06:03:59;;;;;;;2.00;0.70;;;;;;;11.43;100.00;100581.84;105939;1257;61322;-56
2024/04/07 06:06:26;;;;;;;0.80;0.60;;;;;;;11.52;100.00;100585.05;105929;1273;60377;-55
2024/04/07 06:08:53;;;;;;;3.00;0.80;;;;;;;11.59;100.00;100592.52;105871;1262;74763;-55
2024/04/07 06:11:19;;;;;;;1.50;0.90;;;;;;;11.62;100.00;100600.66;105920;1257;67082;-53
2024/04/07 06:13:46;;;;;;;1.80;0.90;;;;;;;11.65;100.00;100608.63;105899;1260;73487;-56
2024/04/07 06:16:13;;;;;;;1.60;0.70;;;;;;;11.68;100.00;100610.12;106489;1258;61005;-56
2024/04/07 06:18:40;;;;;;;2.50;0.80;;;;;;;11.70;100.00;100609.16;105995;1257;59835;-56
2024/04/07 06:21:10;;;;;;;0.60;0.60;;;;;;;11.71;100.00;100607.50;105837;1260;74105;-55
2024/04/07 06:23:37;;;;;;;2.10;0.60;;;;;;;11.75;100.00;100607.52;105868;1262;66924;-55
2024/04/07 06:26:03;;;;;;;4.00;0.70;;;;;;;11.80;100.00;100605.02;105874;1262;73115;-54
2024/04/07 06:28:30;;;;;;;0.90;0.70;;;;;;;11.85;100.00;100603.71;105864;1257;61475;-57
2024/04/07 06:30:57;;;;;;;2.80;0.70;;;;;;;11.92;100.00;100608.13;106229;1261;61464;-56
2024/04/07 06:33:26;;;;;;;1.70;0.60;;;;;;;12.00;100.00;100616.96;105857;1271;74094;-55
2024/04/07 06:35:53;;;;;;;2.20;0.90;;;;;;;12.11;100.00;100623.53;105941;1262;66849;-57
2024/04/07 06:38:20;;;;;;;1.30;0.80;;;;;;;12.21;100.00;100631.61;105817;1261;71710;-55
2024/04/07 06:40:47;;;;;;;2.80;0.70;;;;;;;12.29;100.00;100630.19;105842;1258;61397;-56
2024/04/07 06:43:13;;;;;;;1.10;0.70;;;;;;;12.37;100.00;100634.36;105920;1262;60572;-56
2024/04/07 06:45:40;;;;;;;1.30;0.70;;;;;;;12.46;100.00;100642.76;105824;1257;73762;-56
2024/04/07 06:48:07;;;;;;;0.80;0.60;;;;;;;12.56;100.00;100650.46;105932;1261;67507;-56
2024/04/07 06:50:34;;;;;;;2.40;0.60;;;;;;;12.64;100.00;100655.17;105855;1257;73137;-55
2024/04/07 06:53:02;;;;;;;0.90;0.50;;;;;;;12.71;100.00;100660.46;105873;1262;60543;-57
2024/04/07 06:55:28;;;;;;;0.60;0.50;;;;;;;12.76;100.00;100663.48;106519;1260;60415;-55
2024/04/07 06:57:55;;;;;;;1.20;0.60;;;;;;;12.82;100.00;100670.44;107737;1261;73981;-56
2024/04/07 07:00:22;;;;;;;1.30;0.70;;;;;;;12.85;100.00;100674.40;106348;1257;67192;-56
2024/04/07 07:02:49;;;;;;;1.50;0.60;;;;;;;12.83;100.00;100678.64;107087;1257;72544;-56
2024/04/07 07:05:16;;;;;;;1.10;0.60;;;;;;;12.79;100.00;100678.31;105851;1262;60447;-56
2024/04/07 07:07:43;;;;;;;1.30;0.60;;;;;;;12.78;100.00;100681.92;105890;1269;60463;-57
2024/04/07 07:10:10;;;;;;;1.30;0.60;;;;;;;12.85;100.00;100683.06;105994;1262;73180;-56
2024/04/07 07:12:37;;;;;;;1.30;0.60;;;;;;;12.94;100.00;100686.49;105928;1257;67565;-56
2024/04/07 07:15:05;;;;;;;1.00;0.60;;;;;;;13.00;100.00;100687.64;108890;1257;73373;-56
2024/04/07 07:17:32;;;;;;;1.40;0.80;;;;;;;13.06;100.00;100692.27;108727;1260;62948;-55
2024/04/07 07:19:59;;;;;;;1.10;0.40;;;;;;;13.12;100.00;100694.88;108882;1260;59418;-56
2024/04/07 07:22:26;;;;;;;1.80;0.40;;;;;;;13.22;100.00;100694.27;108682;1257;73682;-56
2024/04/07 07:24:52;;;;;;;1.70;0.50;;;;;;;13.34;100.00;100696.80;108903;1260;66734;-56
2024/04/07 07:27:19;;;;;;;0.50;0.30;;;;;;;13.48;100.00;100705.92;108830;1257;72450;-56
2024/04/07 07:29:46;;;;;;;0.90;0.50;;;;;;;13.55;100.00;100703.44;108830;1260;59094;-56
2024/04/07 07:32:13;;;;;;;1.00;0.50;;;;;;;13.56;100.00;100704.08;108818;1261;58841;-56
2024/04/07 07:34:39;;;;;;;1.40;0.50;;;;;;;13.57;100.00;100705.67;108888;1260;73551;-56
2024/04/07 07:37:06;;;;;;;1.00;0.40;;;;;;;13.56;100.00;100705.33;108814;1257;68130;-55
2024/04/07 07:39:33;;;;;;;1.30;0.30;;;;;;;13.57;100.00;100705.30;108803;1257;72649;-55
2024/04/07 07:42:00;;;;;;;0.90;0.30;;;;;;;13.64;100.00;100708.23;108990;1257;61764;-55
2024/04/07 07:44:27;;;;;;;0.80;0.30;;;;;;;13.73;100.00;100711.64;108944;1256;58557;-55
2024/04/07 07:46:54;;;;;;;0.40;0.30;;;;;;;13.81;100.00;100709.59;107215;1257;76157;-55
2024/04/07 07:49:20;;;;;;;0.40;0.30;;;;;;;13.89;100.00;100710.14;108045;1259;66742;-54
2024/04/07 07:51:47;;;;;;;1.60;0.20;;;;;;;13.97;100.00;100717.32;105980;1259;73083;-55
2024/04/07 07:54:14;;;;;;;2.20;0.20;;;;;;;14.10;100.00;100729.35;105924;1266;60726;-53
2024/04/07 07:56:41;;;;;;;0.40;0.20;;;;;;;14.21;100.00;100734.79;105927;1260;60499;-56
2024/04/07 07:59:08;;;;;;;0.80;0.20;;;;;;;14.32;100.00;100733.19;105980;1257;73714;-56
2024/04/07 08:01:34;;;;;;;0.40;0.20;;;;;;;14.43;100.00;100733.80;105877;1259;66325;-55
2024/04/07 08:04:06;;;;;;;0.30;0.10;;;;;;;14.48;100.00;100739.81;106081;1260;72465;-55
2024/04/07 08:06:32;;;;;;;0.70;0.20;;;;;;;14.51;100.00;100738.80;105965;1256;61353;-55
2024/04/07 08:08:59;;;;;;;1.00;0.30;;;;;;;14.54;100.00;100736.09;105980;1270;61330;-56
2024/04/07 08:11:26;;;;;;;0.40;0.20;;;;;;;14.60;100.00;100739.09;106247;1259;73431;-55
2024/04/07 08:13:54;;;;;;;0.60;0.20;;;;;;;14.61;100.00;100740.30;105975;1259;66782;-55
2024/04/07 08:16:22;;;;;;;1.20;0.20;;;;;;;14.61;100.00;100737.92;106202;1260;72617;-55
2024/04/07 08:18:49;;;;;;;1.00;0.20;;;;;;;14.63;100.00;100747.95;107143;1257;61445;-55
2024/04/07 08:21:16;;;;;;;0.30;0.20;;;;;;;14.67;100.00;100752.45;106010;1262;60403;-55
2024/04/07 08:23:43;;;;;;;0.90;0.20;;;;;;;14.69;100.00;100753.08;106072;1257;74039;-54
2024/04/07 08:26:09;;;;;;;0.40;0.30;;;;;;;14.73;100.00;100755.19;105977;1260;67672;-56
2024/04/07 08:28:36;;;;;;;2.80;0.20;;;;;;;14.78;100.00;100754.23;105917;1257;72540;-55
2024/04/07 08:31:03;;;;;;;1.30;0.30;;;;;;;14.86;100.00;100760.55;105970;1259;60655;-57
2024/04/07 08:33:30;;;;;;;0.60;0.20;;;;;;;14.92;100.00;100756.27;106398;1259;60463;-55
2024/04/07 08:35:57;;;;;;;1.30;0.30;;;;;;;14.95;100.00;100753.60;105959;1257;73768;-55
2024/04/07 08:38:24;;;;;;;1.00;0.30;;;;;;;14.98;100.00;100758.64;106405;1257;66863;-55
2024/04/07 08:40:51;;;;;;;0.60;0.30;;;;;;;15.03;100.00;100758.76;105945;1259;72802;-56
2024/04/07 08:43:19;;;;;;;1.10;0.30;;;;;;;15.10;100.00;100760.58;106030;1260;60974;-55
2024/04/07 08:45:45;;;;;;;0.30;0.20;;;;;;;15.17;100.00;100761.83;107002;1257;59333;-54
2024/04/07 08:48:12;;;;;;;2.20;0.30;;;;;;;15.27;100.00;100753.17;105672;1263;74322;-56
2024/04/07 08:50:40;;;;;;;0.40;0.30;;;;;;;15.42;100.00;100755.48;105779;1271;65798;-55
2024/04/07 08:53:07;;;;;;;0.80;0.30;;;;;;;15.57;100.00;100758.71;105828;1258;74382;-53
2024/04/07 08:55:35;;;;;;;1.20;0.30;;;;;;;15.71;100.00;100754.70;106166;1260;60418;-56
2024/04/07 08:58:03;;;;;;;1.10;0.30;;;;;;;15.81;100.00;100753.96;105964;1262;60412;-54
2024/04/07 09:00:30;;;;;;;0.60;0.20;;;;;;;15.88;100.00;100758.48;106003;1263;73760;-53
2024/04/07 09:02:58;;;;;;;0.90;0.20;;;;;;;15.86;100.00;100759.65;105796;1262;68343;-54
2024/04/07 09:05:25;;;;;;;1.00;0.30;;;;;;;15.77;100.00;100767.02;106488;1260;72682;-55
2024/04/07 09:07:52;;;;;;;0.50;0.30;;;;;;;15.66;100.00;100767.61;106385;1262;61467;-56
2024/04/07 09:10:19;;;;;;;2.30;0.30;;;;;;;15.56;100.00;100767.62;105935;1260;61215;-56
2024/04/07 09:12:46;;;;;;;1.20;0.30;;;;;;;15.48;100.00;100770.91;106005;1260;74647;-57
2024/04/07 09:15:13;;;;;;;1.80;0.20;;;;;;;15.45;100.00;100775.94;106020;1270;67033;-56
2024/04/07 09:17:40;;;;;;;1.70;0.30;;;;;;;15.45;100.00;100777.19;106233;1260;71414;-55
2024/04/07 09:20:19;;;;;;;0.90;0.20;;;;;;;15.51;100.00;100779.41;105787;1257;61367;-54
2024/04/07 09:22:47;;;;;;;1.50;0.20;;;;;;;15.61;100.00;100781.49;106176;1258;59955;-54
2024/04/07 09:25:14;;;;;;;1.90;0.40;;;;;;;15.73;100.00;100788.26;106033;1259;74665;-55
2024/04/07 09:27:41;;;;;;;0.50;0.20;;;;;;;15.84;100.00;100794.86;106001;1262;66759;-54
2024/04/07 09:30:08;;;;;;;0.70;0.20;;;;;;;15.90;100.00;100792.73;106585;1259;72081;-54
2024/04/07 09:32:36;;;;;;;0.50;0.20;;;;;;;15.96;100.00;100796.95;106214;1262;61393;-55
2024/04/07 09:35:04;;;;;;;1.20;0.20;;;;;;;16.05;100.00;100800.83;106308;1260;61237;-54
2024/04/07 09:37:31;;;;;;;0.50;0.20;;;;;;;16.18;100.00;100801.17;106425;1269;74573;-55
2024/04/07 09:39:57;;;;;;;0.90;0.30;;;;;;;16.30;100.00;100796.90;106096;1260;67080;-54
2024/04/07 09:42:27;;;;;;;0.70;0.30;;;;;;;16.35;100.00;100804.77;106079;1254;72987;-54
2024/04/07 09:44:58;;;;;;;0.70;0.40;;;;;;;16.32;100.00;100800.24;106249;1267;61240;-55
2024/04/07 09:47:27;;;;;;;0.90;0.30;;;;;;;16.37;100.00;100806.68;106049;1269;61250;-55
2024/04/07 09:50:09;;;;;;;1.20;0.40;;;;;;;16.46;100.00;100809.07;106063;1256;76185;-56
2024/04/07 09:52:40;;;;;;;0.60;0.20;;;;;;;16.51;100.00;100817.47;106208;1262;67016;-56
2024/04/07 09:55:08;;;;;;;0.80;0.30;;;;;;;16.48;100.00;100818.35;106274;1268;73908;-56
2024/04/07 09:57:35;;;;;;;0.70;0.20;;;;;;;16.42;100.00;100814.84;107076;1257;64777;-55
2024/04/07 10:00:04;;;;;;;0.50;0.20;;;;;;;16.40;100.00;100819.88;106130;1260;61051;-54
2024/04/07 10:02:33;;;;;;;2.00;0.20;;;;;;;16.42;100.00;100820.52;106257;1258;74510;-55
2024/04/07 10:04:59;;;;;;;1.30;0.20;;;;;;;16.46;100.00;100820.07;106116;1260;67613;-55
2024/04/07 10:07:26;;;;;;;0.40;0.20;;;;;;;16.52;100.00;100822.45;105972;1260;72481;-56
2024/04/07 10:09:54;;;;;;;0.60;0.20;;;;;;;16.61;100.00;100825.59;105982;1260;61833;-55
2024/04/07 10:12:28;;;;;;;1.20;0.10;;;;;;;16.76;100.00;100828.60;106090;1259;62085;-56
2024/04/07 10:14:58;;;;;;;1.70;0.20;;;;;;;16.91;100.00;100831.32;106224;1259;74542;-57
2024/04/07 10:17:30;;;;;;;0.60;0.10;;;;;;;17.04;100.00;100832.38;106103;1269;66682;-56
2024/04/07 10:19:57;;;;;;;2.80;0.20;;;;;;;17.12;100.00;100832.81;109159;1254;71684;-56
2024/04/07 10:22:26;;;;;;;2.40;0.20;;;;;;;17.14;100.00;100831.61;109098;1254;60292;-56
2024/04/07 10:24:52;;;;;;;0.80;0.20;;;;;;;17.16;100.00;100835.72;109260;1254;59033;-56
2024/04/07 10:27:23;;;;;;;1.70;0.30;;;;;;;17.14;100.00;100831.63;109149;1254;73967;-57
2024/04/07 10:29:54;;;;;;;0.50;0.20;;;;;;;17.11;100.00;100836.69;109127;1255;66793;-56
2024/04/07 10:32:27;;;;;;;0.40;0.30;;;;;;;17.09;100.00;100838.08;109153;1254;71629;-56
2024/04/07 10:35:02;;;;;;;1.40;0.30;;;;;;;17.05;100.00;100842.30;108998;1254;60287;-57
2024/04/07 10:37:39;;;;;;;0.60;0.20;;;;;;;17.01;100.00;100842.54;109089;1255;59323;-57
2024/04/07 10:40:08;;;;;;;1.00;0.30;;;;;;;16.96;100.00;100844.08;109009;1254;74613;-57
2024/04/07 10:42:35;;;;;;;0.80;0.30;;;;;;;16.99;100.00;100841.91;109154;1258;66047;-57
2024/04/07 10:45:07;;;;;;;1.70;0.30;;;;;;;17.09;100.00;100843.16;109241;1254;73526;-56
2024/04/07 10:47:33;;;;;;;0.50;0.20;;;;;;;17.20;100.00;100848.16;109094;1257;60338;-57
2024/04/07 10:50:00;;;;;;;1.00;0.20;;;;;;;17.23;100.00;100844.70;109060;1258;60436;-55
2024/04/07 10:52:29;;;;;;;2.10;0.30;;;;;;;17.26;100.00;100845.41;109154;1254;75421;-54
2024/04/07 10:54:56;;;;;;;0.70;0.20;;;;;;;17.29;100.00;100837.99;109261;1254;66980;-55
2024/04/07 10:57:22;;;;;;;0.30;0.20;;;;;;;17.31;100.00;100839.14;106537;1258;71178;-56
2024/04/07 10:59:50;;;;;;;0.50;0.20;;;;;;;17.35;100.00;100838.75;106087;1259;59979;-56
2024/04/07 11:02:21;;;;;;;0.30;0.20;;;;;;;17.44;100.00;100840.40;106296;1257;61199;-56
2024/04/07 11:04:47;;;;;;;0.30;0.10;;;;;;;17.56;100.00;100839.46;106167;1257;74678;-56
2024/04/07 11:07:14;;;;;;;0.50;0.30;;;;;;;17.67;100.00;100842.27;106071;1259;66772;-56
2024/04/07 11:09:41;;;;;;;1.40;0.20;;;;;;;17.74;100.00;100841.84;106105;1255;71224;-57
2024/04/07 11:12:09;;;;;;;0.50;0.20;;;;;;;17.80;100.00;100844.74;106714;1257;61317;-56
2024/04/07 11:14:36;;;;;;;0.30;0.20;;;;;;;17.83;100.00;100852.55;106170;1266;61234;-55
2024/04/07 11:17:05;;;;;;;0.80;0.20;;;;;;;17.83;100.00;100860.23;106066;1259;73715;-56
2024/04/07 11:19:35;;;;;;;1.10;0.20;;;;;;;17.80;100.00;100861.83;106153;1261;67080;-55